Time;durP1;ratioP1;P1;durP2;ratioP2;P2;SDS_P1;SDS_P2;PMS_P1;PMS_P2;Temp;Humidity;BMP_temperature;BMP_pressure;BME280_temperature;BME280_humidity;BME280_pressure;Samples;Min_cycle;Max_cycle;Signal;HPM_P1;HPM_P2
2023/06/10 00:01:57;;;;;;;0.80;0.80;;;;;;;17.73;89.37;96486.13;5064853;28;20044;-67
2023/06/10 00:04:24;;;;;;;0.80;0.80;;;;;;;17.86;89.39;96489.88;5064729;28;20571;-66
2023/06/10 00:06:51;;;;;;;0.80;0.80;;;;;;;17.88;89.45;96481.78;5064295;28;20059;-67
2023/06/10 00:09:18;;;;;;;0.80;0.80;;;;;;;17.82;89.93;96480.72;5064523;28;20531;-66
2023/06/10 00:11:44;;;;;;;0.80;0.80;;;;;;;16.75;89.30;96303.25;5064492;28;20071;-67
2023/06/10 00:14:11;;;;;;;0.80;0.80;;;;;;;17.88;89.43;96481.78;5064236;28;20054;-67
2023/06/10 00:16:38;;;;;;;0.80;0.80;;;;;;;17.50;90.50;96444.13;5062652;28;20538;-67
2023/06/10 00:19:06;;;;;;;0.80;0.80;;;;;;;17.16;91.36;96423.97;5064160;28;20052;-70
2023/06/10 00:21:39;;;;;;;0.80;0.80;;;;;;;17.62;91.57;96475.13;5063943;28;20064;-67
2023/06/10 00:24:11;;;;;;;0.88;0.88;;;;;;;17.55;91.32;96458.44;5063103;28;20055;-67
2023/06/10 00:26:40;;;;;;;0.80;0.80;;;;;;;17.54;91.95;96478.50;5064342;28;20114;-67
2023/06/10 00:29:08;;;;;;;0.75;0.75;;;;;;;17.63;91.76;96473.91;5059242;28;20538;-67
2023/06/10 00:31:35;;;;;;;0.70;0.70;;;;;;;17.41;91.35;96433.50;5042832;28;20041;-67
2023/06/10 00:34:02;;;;;;;0.75;0.75;;;;;;;17.69;90.77;96460.16;5042873;28;20079;-67
2023/06/10 00:36:29;;;;;;;0.80;0.80;;;;;;;17.73;91.05;96469.31;5041993;28;20563;-68
2023/06/10 00:38:57;;;;;;;0.70;0.70;;;;;;;17.65;91.13;96473.47;5042883;28;20076;-67
2023/06/10 00:41:26;;;;;;;0.80;0.80;;;;;;;17.74;90.62;96476.47;5044217;28;20057;-67
2023/06/10 00:43:52;;;;;;;0.70;0.70;;;;;;;17.63;90.14;96470.31;5044210;28;20171;-67
2023/06/10 00:46:21;;;;;;;0.80;0.80;;;;;;;17.67;89.49;96476.63;5043809;28;20049;-66
2023/06/10 00:48:48;;;;;;;0.70;0.70;;;;;;;17.45;90.11;96469.88;5042665;28;20072;-66
2023/06/10 00:51:16;;;;;;;0.80;0.80;;;;;;;17.38;90.23;96469.97;5043595;28;20616;-68
2023/06/10 00:53:43;;;;;;;0.80;0.80;;;;;;;17.08;91.81;96472.91;5043363;28;20057;-65
2023/06/10 00:56:10;;;;;;;0.80;0.80;;;;;;;17.19;90.74;96476.31;5042392;28;20478;-67
2023/06/10 00:58:37;;;;;;;0.80;0.80;;;;;;;16.33;91.74;96389.44;5044094;28;20049;-67
2023/06/10 01:01:04;;;;;;;0.73;0.73;;;;;;;17.06;92.05;96475.34;5042091;28;20041;-65
2023/06/10 01:03:32;;;;;;;0.80;0.80;;;;;;;17.10;92.08;96481.69;5054666;28;20155;-67
2023/06/10 01:06:49;;;;;;;0.70;0.70;;;;;;;16.92;92.07;96440.00;5063656;28;20098;-66
2023/06/10 01:09:15;;;;;;;0.70;0.70;;;;;;;17.06;92.51;96486.53;5058388;28;20143;-66
2023/06/10 01:12:08;;;;;;;0.70;0.70;;;;;;;16.94;92.70;96484.34;5063506;28;20507;-68
2023/06/10 01:14:44;;;;;;;0.80;0.80;;;;;;;16.75;93.25;96476.66;5063526;28;20481;-66
2023/06/10 01:17:12;;;;;;;0.70;0.70;;;;;;;16.73;93.88;96484.69;5061442;28;20048;-66
2023/06/10 01:19:40;;;;;;;0.70;0.70;;;;;;;16.27;93.90;96423.84;5064116;28;20056;-66
2023/06/10 01:22:07;;;;;;;0.80;0.80;;;;;;;16.64;94.26;96472.03;5063988;28;20049;-66
2023/06/10 01:24:34;;;;;;;0.70;0.70;;;;;;;14.25;94.34;96094.22;5062490;28;20052;-66
2023/06/10 01:27:08;;;;;;;0.60;0.60;;;;;;;16.63;95.61;96480.06;5063555;28;20075;-66
2023/06/10 01:29:44;;;;;;;0.70;0.70;;;;;;;16.61;95.99;96472.09;5063853;28;20075;-67
2023/06/10 01:32:18;;;;;;;0.70;0.70;;;;;;;16.46;97.90;96477.13;5062068;28;20491;-66
2023/06/10 01:34:46;;;;;;;0.70;0.70;;;;;;;16.39;98.74;96454.81;5061768;28;20143;-66
2023/06/10 01:37:15;;;;;;;0.70;0.70;;;;;;;16.29;98.08;96444.59;5063481;28;20516;-68
2023/06/10 01:39:43;;;;;;;0.60;0.60;;;;;;;16.60;97.90;96481.69;5063715;28;20078;-66
2023/06/10 01:42:11;;;;;;;0.70;0.70;;;;;;;16.64;97.74;96477.63;5062013;28;20048;-66
2023/06/10 01:44:39;;;;;;;0.70;0.70;;;;;;;16.57;97.11;96474.94;5063640;28;20059;-66
2023/06/10 01:47:06;;;;;;;0.80;0.80;;;;;;;16.57;96.99;96477.75;5065228;28;20059;-66
2023/06/10 01:49:32;;;;;;;0.70;0.70;;;;;;;15.98;97.33;96400.38;5067309;28;20056;-67
2023/06/10 01:51:59;;;;;;;0.70;0.70;;;;;;;16.46;98.02;96470.72;5066615;28;20052;-66
2023/06/10 01:54:26;;;;;;;0.70;0.70;;;;;;;16.11;97.80;96416.13;5065452;28;20048;-67
2023/06/10 01:56:52;;;;;;;0.70;0.70;;;;;;;16.57;96.00;96483.34;5065382;28;20063;-66
2023/06/10 01:59:19;;;;;;;0.73;0.73;;;;;;;16.67;95.87;96480.78;5045695;28;20435;-66
2023/06/10 02:01:46;;;;;;;0.60;0.60;;;;;;;16.64;96.60;96476.84;5047023;28;20040;-67
2023/06/10 02:04:13;;;;;;;0.70;0.70;;;;;;;16.34;96.22;96418.94;5046927;28;20048;-66
2023/06/10 02:06:39;;;;;;;0.80;0.80;;;;;;;15.80;95.58;96314.03;5046346;28;20087;-66
2023/06/10 02:09:06;;;;;;;0.75;0.75;;;;;;;16.20;95.80;96391.22;5045582;28;20053;-66
2023/06/10 02:11:33;;;;;;;0.70;0.70;;;;;;;16.88;94.97;96491.66;5046684;28;20064;-67
2023/06/10 02:13:59;;;;;;;0.70;0.70;;;;;;;16.41;95.04;96430.03;5045306;28;20059;-67
2023/06/10 02:16:26;;;;;;;0.63;0.63;;;;;;;16.43;94.24;96422.03;5045241;28;20057;-67
2023/06/10 02:18:54;;;;;;;0.80;0.80;;;;;;;16.81;94.65;96492.56;5046710;28;20128;-66
2023/06/10 02:21:21;;;;;;;0.80;0.80;;;;;;;16.86;94.46;96488.47;5046474;28;20430;-66
2023/06/10 02:23:47;;;;;;;0.68;0.68;;;;;;;16.87;94.61;96481.66;5046432;28;20053;-66
2023/06/10 02:26:14;;;;;;;0.70;0.70;;;;;;;16.94;94.08;96490.75;5046411;28;20053;-67
2023/06/10 02:28:44;;;;;;;0.80;0.80;;;;;;;16.97;93.48;96497.47;5051075;28;20139;-65
2023/06/10 02:31:11;;;;;;;0.70;0.70;;;;;;;17.04;93.05;96488.97;5065949;28;20056;-66
2023/06/10 02:33:40;;;;;;;0.70;0.70;;;;;;;16.94;92.66;96489.94;5066421;28;20060;-66
2023/06/10 02:36:06;;;;;;;0.70;0.70;;;;;;;16.91;92.29;96488.00;5065647;28;20424;-65
2023/06/10 02:38:33;;;;;;;0.73;0.73;;;;;;;16.84;91.76;96490.91;5064859;28;20071;-65
2023/06/10 02:41:00;;;;;;;0.68;0.68;;;;;;;16.63;91.80;96467.66;5066115;28;20505;-66
2023/06/10 02:43:27;;;;;;;0.70;0.70;;;;;;;16.77;91.91;96491.03;5066061;28;20573;-67
2023/06/10 02:45:54;;;;;;;0.70;0.70;;;;;;;16.80;92.53;96495.78;5064602;28;20431;-67
2023/06/10 02:48:24;;;;;;;0.70;0.70;;;;;;;16.41;92.34;96460.78;5064995;28;20076;-67
2023/06/10 02:50:50;;;;;;;0.70;0.70;;;;;;;16.59;92.75;96480.13;5065786;28;20105;-66
2023/06/10 02:53:17;;;;;;;0.70;0.70;;;;;;;16.21;93.88;96442.31;5065407;28;20064;-66
2023/06/10 02:55:44;;;;;;;0.70;0.70;;;;;;;16.66;94.66;96507.19;5065688;28;20608;-67
2023/06/10 02:58:10;;;;;;;0.70;0.70;;;;;;;16.27;96.10;96486.16;5064963;28;20048;-66
2023/06/10 03:00:37;;;;;;;0.70;0.70;;;;;;;16.21;98.93;96501.81;5065446;28;20067;-66
2023/06/10 03:03:05;;;;;;;0.70;0.70;;;;;;;16.45;98.24;96505.50;5065676;28;20485;-66
2023/06/10 03:05:32;;;;;;;0.70;0.70;;;;;;;16.27;97.70;96457.41;5065128;28;20143;-66
2023/06/10 03:07:59;;;;;;;0.70;0.70;;;;;;;16.75;96.74;96496.25;5065394;28;20052;-67
2023/06/10 03:10:26;;;;;;;0.80;0.80;;;;;;;16.97;95.47;96500.28;5063749;28;20048;-66
2023/06/10 03:12:53;;;;;;;0.70;0.70;;;;;;;17.06;94.94;96497.72;5064314;28;20227;-67
2023/06/10 03:15:20;;;;;;;0.70;0.70;;;;;;;17.11;94.21;96500.03;5064071;28;20070;-67
2023/06/10 03:17:47;;;;;;;0.70;0.70;;;;;;;17.15;93.15;96506.38;5065236;28;20054;-65
2023/06/10 03:20:15;;;;;;;0.80;0.80;;;;;;;16.91;92.97;96457.22;5064852;28;20044;-66
2023/06/10 03:22:42;;;;;;;0.70;0.70;;;;;;;17.26;92.86;96506.97;5063856;28;20052;-67
2023/06/10 03:25:13;;;;;;;0.75;0.75;;;;;;;17.33;92.55;96506.84;5063935;28;20059;-66
2023/06/10 03:27:42;;;;;;;0.80;0.80;;;;;;;17.26;92.46;96499.34;5064807;28;20052;-66
2023/06/10 03:30:09;;;;;;;0.73;0.73;;;;;;;17.28;92.62;96482.13;5064664;28;20573;-66
2023/06/10 03:32:36;;;;;;;0.70;0.70;;;;;;;17.44;92.63;96499.03;5063365;28;20048;-66
2023/06/10 03:35:04;;;;;;;0.70;0.70;;;;;;;17.36;92.37;96494.78;5064984;28;20048;-65
2023/06/10 03:37:30;;;;;;;0.70;0.70;;;;;;;17.60;91.79;96504.78;5064758;28;20059;-66
2023/06/10 03:39:57;;;;;;;0.70;0.70;;;;;;;17.73;91.07;96508.53;5064740;28;20059;-67
2023/06/10 03:42:24;;;;;;;0.80;0.80;;;;;;;17.47;90.24;96457.00;5064977;28;20045;-66
2023/06/10 03:44:50;;;;;;;0.73;0.73;;;;;;;17.51;89.45;96434.53;5065061;28;20048;-65
2023/06/10 03:47:18;;;;;;;0.80;0.80;;;;;;;18.01;89.25;96514.34;5064565;28;20057;-67
2023/06/10 03:49:44;;;;;;;0.70;0.70;;;;;;;18.27;87.94;96509.81;5062926;28;20462;-66
2023/06/10 03:52:11;;;;;;;0.77;0.77;;;;;;;18.12;86.92;96463.66;5064554;28;20056;-66
2023/06/10 03:54:38;;;;;;;0.80;0.80;;;;;;;18.45;86.63;96476.56;5064311;28;20645;-66
2023/06/10 03:57:05;;;;;;;0.73;0.73;;;;;;;18.63;86.42;96481.78;5064476;28;20052;-65
2023/06/10 03:59:32;;;;;;;0.80;0.80;;;;;;;18.78;85.29;96489.41;5064652;28;20070;-67
2023/06/10 04:02:00;;;;;;;0.80;0.80;;;;;;;18.93;84.67;96496.28;5064523;28;20161;-66
2023/06/10 04:04:27;;;;;;;0.80;0.80;;;;;;;18.94;83.91;96481.00;5064160;28;20050;-67
2023/06/10 04:06:53;;;;;;;0.80;0.80;;;;;;;19.15;83.17;96497.34;5062756;28;20503;-67
2023/06/10 04:09:20;;;;;;;0.80;0.80;;;;;;;19.24;82.99;96493.88;5064050;28;20056;-67
2023/06/10 04:11:48;;;;;;;0.90;0.90;;;;;;;19.35;82.37;96489.63;5061961;28;20060;-66
2023/06/10 04:14:15;;;;;;;0.80;0.80;;;;;;;19.40;81.96;96491.88;5064893;28;20080;-66
2023/06/10 04:16:42;;;;;;;0.80;0.80;;;;;;;19.49;81.39;96494.84;5062497;28;20048;-66
2023/06/10 04:19:09;;;;;;;0.80;0.80;;;;;;;19.37;81.96;96489.16;5064317;28;20083;-68
2023/06/10 04:21:35;;;;;;;0.90;0.90;;;;;;;19.02;81.64;96420.66;5064026;28;20135;-66
2023/06/10 04:24:02;;;;;;;0.90;0.90;;;;;;;19.63;81.35;96492.91;5063966;28;20046;-65
2023/06/10 04:26:29;;;;;;;0.90;0.90;;;;;;;19.10;80.86;96396.78;5064196;28;20633;-67
2023/06/10 04:28:56;;;;;;;0.88;0.88;;;;;;;19.85;79.93;96482.66;5062640;28;20135;-66
2023/06/10 04:31:23;;;;;;;0.80;0.80;;;;;;;19.91;79.19;96478.84;5063691;28;20400;-67
2023/06/10 04:33:50;;;;;;;1.00;1.00;;;;;;;19.52;81.81;96488.34;5063922;28;20056;-66
2023/06/10 04:36:16;;;;;;;1.00;1.00;;;;;;;19.47;82.53;96486.06;5063841;28;20132;-66
2023/06/10 04:38:43;;;;;;;0.90;0.90;;;;;;;19.27;84.44;96481.78;5064260;28;20049;-66
2023/06/10 04:41:10;;;;;;;0.82;0.82;;;;;;;19.69;82.15;96486.31;5063782;28;20139;-66
2023/06/10 04:43:36;;;;;;;0.80;0.80;;;;;;;19.86;80.90;96478.59;5063908;28;20508;-66
2023/06/10 04:46:03;;;;;;;0.90;0.90;;;;;;;19.87;80.98;96483.00;5062217;28;20064;-67
2023/06/10 04:48:35;;;;;;;0.85;0.85;;;;;;;19.51;81.00;96408.13;5058696;28;20059;-67
2023/06/10 04:51:01;;;;;;;0.88;0.88;;;;;;;20.19;79.97;96474.44;5063047;28;20438;-64
2023/06/10 04:53:28;;;;;;;0.90;0.90;;;;;;;20.23;79.45;96472.31;5062615;28;20412;-68
2023/06/10 04:55:55;;;;;;;0.80;0.80;;;;;;;20.52;78.70;96475.84;5061560;28;20127;-68
2023/06/10 04:58:21;;;;;;;0.80;0.80;;;;;;;20.47;77.54;96429.34;5063762;28;20048;-69
2023/06/10 05:00:48;;;;;;;0.90;0.90;;;;;;;20.92;77.22;96483.41;5060850;28;20052;-67
2023/06/10 05:03:15;;;;;;;0.80;0.80;;;;;;;20.25;80.96;96479.06;5062307;28;20533;-68
2023/06/10 05:05:42;;;;;;;1.00;1.00;;;;;;;20.39;80.40;96446.91;5063464;28;20052;-68
2023/06/10 05:08:08;;;;;;;0.90;0.90;;;;;;;20.85;79.40;96472.34;5063524;28;20044;-68
2023/06/10 05:10:35;;;;;;;0.90;0.90;;;;;;;21.05;78.09;96486.22;5061533;28;20131;-68
2023/06/10 05:13:02;;;;;;;0.88;0.88;;;;;;;21.11;77.96;96484.41;5061692;28;20124;-68
2023/06/10 05:15:30;;;;;;;0.93;0.93;;;;;;;20.81;80.29;96482.16;5076906;28;20161;-68
2023/06/10 05:17:58;;;;;;;1.00;1.00;;;;;;;20.40;82.33;96485.06;5061534;28;20048;-69
2023/06/10 05:20:25;;;;;;;0.88;0.88;;;;;;;19.78;84.88;96463.16;5061888;28;20128;-67
2023/06/10 05:22:52;;;;;;;0.90;0.90;;;;;;;19.94;84.48;96443.41;5080181;28;20048;-68
2023/06/10 05:25:19;;;;;;;0.80;0.80;;;;;;;20.39;82.72;96469.44;5082156;28;20075;-68
2023/06/10 05:27:46;;;;;;;0.88;0.88;;;;;;;20.18;82.60;96422.25;5067608;28;20052;-68
2023/06/10 05:30:13;;;;;;;0.90;0.90;;;;;;;20.83;81.61;96469.19;5067296;28;20056;-68
2023/06/10 05:32:39;;;;;;;0.80;0.80;;;;;;;21.13;80.39;96470.69;5067275;28;20060;-67
2023/06/10 05:35:06;;;;;;;0.85;0.85;;;;;;;21.42;79.66;96465.63;5065824;28;20477;-69
2023/06/10 05:37:36;;;;;;;1.00;1.00;;;;;;;21.64;78.33;96466.47;5066104;28;20109;-67
2023/06/10 05:40:04;;;;;;;0.90;0.90;;;;;;;21.91;76.77;96469.53;5065339;28;20051;-69
2023/06/10 05:42:31;;;;;;;0.90;0.90;;;;;;;19.89;76.02;96140.38;5066523;28;20056;-68
2023/06/10 05:44:57;;;;;;;1.00;1.00;;;;;;;21.82;75.11;96412.28;5065769;28;20056;-69
2023/06/10 05:47:24;;;;;;;1.00;1.00;;;;;;;22.12;75.53;96467.97;5065689;28;20045;-69
2023/06/10 05:49:51;;;;;;;1.00;1.00;;;;;;;22.16;75.31;96466.56;5066850;28;20110;-67
2023/06/10 05:52:18;;;;;;;0.90;0.90;;;;;;;22.43;72.81;96449.81;5066152;28;20059;-69
2023/06/10 05:54:45;;;;;;;1.02;1.02;;;;;;;22.81;71.37;96466.47;5065093;28;20052;-69
2023/06/10 05:57:12;;;;;;;1.00;1.00;;;;;;;22.64;73.18;96465.16;5066916;28;20048;-70
2023/06/10 05:59:39;;;;;;;1.00;1.00;;;;;;;22.05;74.31;96429.50;5066821;28;20049;-69
2023/06/10 06:02:05;;;;;;;1.08;1.08;;;;;;;22.36;74.70;96475.50;5067120;28;20052;-69
2023/06/10 06:04:33;;;;;;;1.00;1.00;;;;;;;22.20;73.91;96430.56;5067014;28;20059;-70
2023/06/10 06:07:00;;;;;;;1.00;1.00;;;;;;;22.55;73.28;96484.88;5066994;28;20091;-69
2023/06/10 06:09:26;;;;;;;0.93;0.93;;;;;;;22.38;74.50;96484.28;5064959;28;20048;-69
2023/06/10 06:11:53;;;;;;;0.90;0.90;;;;;;;22.19;75.18;96493.09;5065929;28;20056;-69
2023/06/10 06:14:20;;;;;;;1.00;1.00;;;;;;;21.94;77.11;96493.22;5066278;28;20056;-67
2023/06/10 06:16:46;;;;;;;0.95;0.95;;;;;;;21.91;77.09;96491.31;5066369;28;20471;-68
2023/06/10 06:19:13;;;;;;;0.90;0.90;;;;;;;21.89;76.68;96477.66;5066203;28;20067;-67
2023/06/10 06:21:40;;;;;;;1.00;1.00;;;;;;;22.03;76.37;96476.38;5066356;28;20412;-68
2023/06/10 06:24:07;;;;;;;1.00;1.00;;;;;;;22.20;71.77;96489.81;5064848;28;20147;-68
2023/06/10 06:26:34;;;;;;;0.90;0.90;;;;;;;21.77;70.91;96419.31;5065068;28;20089;-68
2023/06/10 06:29:01;;;;;;;0.98;0.98;;;;;;;22.08;70.19;96482.19;5063667;28;20053;-68
2023/06/10 06:31:27;;;;;;;0.88;0.88;;;;;;;22.28;70.07;96482.66;5064820;28;20058;-68
2023/06/10 06:33:54;;;;;;;0.90;0.90;;;;;;;22.40;69.82;96489.47;5061971;28;20056;-68
2023/06/10 06:36:21;;;;;;;0.88;0.88;;;;;;;22.22;70.90;96487.31;5063178;28;20052;-69
2023/06/10 06:38:48;;;;;;;0.90;0.90;;;;;;;22.48;69.20;96485.13;5063390;28;20063;-68
2023/06/10 06:41:14;;;;;;;0.90;0.90;;;;;;;22.84;68.28;96484.56;5064150;28;20052;-68
2023/06/10 06:43:42;;;;;;;1.00;1.00;;;;;;;22.91;68.47;96484.25;5065689;28;20050;-69
2023/06/10 06:46:09;;;;;;;1.00;1.00;;;;;;;23.09;68.15;96478.69;5065681;28;20059;-68
2023/06/10 06:48:36;;;;;;;1.10;1.10;;;;;;;23.19;66.25;96466.16;5064438;28;20488;-69
2023/06/10 06:51:03;;;;;;;1.00;1.00;;;;;;;23.03;65.80;96435.34;5065791;28;20110;-68
2023/06/10 06:53:30;;;;;;;1.10;1.10;;;;;;;23.47;65.58;96476.28;5065586;28;20523;-69
2023/06/10 06:55:57;;;;;;;1.00;1.00;;;;;;;23.34;63.31;96413.44;5065683;28;20040;-68
2023/06/10 06:58:24;;;;;;;1.05;1.05;;;;;;;24.13;62.93;96472.56;5065914;28;20123;-69
2023/06/10 07:00:51;;;;;;;1.00;1.00;;;;;;;24.12;62.15;96448.38;5063870;28;20052;-69
2023/06/10 07:03:17;;;;;;;1.30;1.30;;;;;;;24.78;61.33;96469.94;5065550;28;20113;-68
2023/06/10 07:05:44;;;;;;;1.13;1.13;;;;;;;25.08;60.09;96445.41;5065321;28;20131;-69
2023/06/10 07:08:11;;;;;;;1.08;1.08;;;;;;;24.23;62.74;96479.81;5063974;28;20475;-68
2023/06/10 07:10:38;;;;;;;1.20;1.20;;;;;;;24.35;62.88;96470.34;5064175;28;20125;-68
2023/06/10 07:13:05;;;;;;;1.27;1.27;;;;;;;25.01;60.18;96463.53;5065018;28;20207;-68
2023/06/10 07:15:33;;;;;;;1.30;1.30;;;;;;;25.44;58.76;96461.44;5065003;28;20052;-68
2023/06/10 07:17:59;;;;;;;1.15;1.15;;;;;;;25.58;58.79;96466.38;5065041;28;20053;-67
2023/06/10 07:20:26;;;;;;;1.20;1.20;;;;;;;25.45;59.18;96466.63;5065197;28;20048;-68
2023/06/10 07:22:53;;;;;;;1.27;1.27;;;;;;;25.15;59.69;96411.81;5065111;28;20524;-69
2023/06/10 07:25:20;;;;;;;1.10;1.10;;;;;;;25.43;59.72;96457.81;5065042;28;20189;-68
2023/06/10 07:27:47;;;;;;;1.27;1.27;;;;;;;25.55;58.24;96473.00;5065349;28;20052;-67
2023/06/10 07:30:13;;;;;;;1.23;1.23;;;;;;;25.07;60.63;96460.84;5064789;28;20051;-68
2023/06/10 07:32:40;;;;;;;1.38;1.38;;;;;;;24.69;62.05;96447.28;5063391;28;20053;-67
2023/06/10 07:35:10;;;;;;;1.20;1.20;;;;;;;25.03;61.26;96469.50;5064282;28;20063;-68
2023/06/10 07:37:37;;;;;;;1.40;1.40;;;;;;;24.96;61.33;96471.91;5063102;28;20052;-68
2023/06/10 07:40:05;;;;;;;1.10;1.10;;;;;;;24.59;61.74;96476.91;5064931;28;20059;-68
2023/06/10 07:42:34;;;;;;;1.08;1.08;;;;;;;24.41;62.98;96454.28;5063849;28;20531;-68
2023/06/10 07:45:02;;;;;;;1.17;1.17;;;;;;;24.43;63.06;96474.41;5079895;28;20056;-69
2023/06/10 07:47:30;;;;;;;1.30;1.30;;;;;;;24.23;65.12;96476.97;5083755;28;20630;-69
2023/06/10 07:49:57;;;;;;;1.30;1.30;;;;;;;24.09;63.96;96471.16;5084087;28;20071;-68
2023/06/10 07:52:24;;;;;;;1.10;1.10;;;;;;;24.06;63.38;96470.06;5100179;28;20109;-69
2023/06/10 07:54:51;;;;;;;1.10;1.10;;;;;;;24.14;64.91;96467.72;5084302;28;20517;-69
2023/06/10 07:57:19;;;;;;;1.10;1.10;;;;;;;24.31;63.25;96471.75;5084560;28;20056;-69
2023/06/10 07:59:46;;;;;;;1.17;1.17;;;;;;;24.37;60.46;96419.69;5084844;28;20130;-69
2023/06/10 08:02:12;;;;;;;1.10;1.10;;;;;;;25.12;59.24;96466.63;5083155;28;20048;-68
2023/06/10 08:04:39;;;;;;;1.17;1.17;;;;;;;24.64;59.60;96405.44;5083390;28;20048;-68
2023/06/10 08:07:06;;;;;;;1.20;1.20;;;;;;;25.53;57.65;96481.25;5084715;28;20055;-69
2023/06/10 08:09:33;;;;;;;1.20;1.20;;;;;;;23.79;57.35;96175.84;5084296;28;20062;-68
2023/06/10 08:11:59;;;;;;;1.40;1.40;;;;;;;26.04;56.05;96459.09;5084487;28;20056;-68
2023/06/10 08:14:26;;;;;;;1.23;1.23;;;;;;;25.93;53.36;96407.78;5084090;28;20084;-67
2023/06/10 08:16:53;;;;;;;1.50;1.50;;;;;;;26.98;51.63;96464.47;5084375;28;20052;-67
2023/06/10 08:19:20;;;;;;;1.35;1.35;;;;;;;27.54;49.77;96463.25;5082961;28;20503;-67
2023/06/10 08:21:47;;;;;;;1.50;1.50;;;;;;;28.17;46.06;96467.97;5084352;28;20430;-68
2023/06/10 08:24:16;;;;;;;1.30;1.30;;;;;;;28.54;44.76;96465.28;5083018;28;20044;-68
2023/06/10 08:26:43;;;;;;;1.55;1.55;;;;;;;28.46;45.50;96444.97;5084334;28;20051;-68
2023/06/10 08:29:12;;;;;;;1.70;1.70;;;;;;;28.72;41.28;96457.16;5079228;28;20083;-68
2023/06/10 08:31:43;;;;;;;1.50;1.50;;;;;;;28.81;40.48;96396.31;5063996;28;20087;-68
2023/06/10 08:34:11;;;;;;;1.60;1.60;;;;;;;29.66;40.46;96455.03;5064101;28;20200;-69
2023/06/10 08:36:38;;;;;;;1.50;1.50;;;;;;;29.42;39.88;96463.16;5063602;28;20513;-68
2023/06/10 08:39:05;;;;;;;1.80;1.80;;;;;;;29.12;39.43;96382.03;5064058;28;20052;-69
2023/06/10 08:41:36;;;;;;;1.48;1.48;;;;;;;29.83;40.28;96452.28;5062120;28;20053;-68
2023/06/10 08:44:28;;;;;;;1.40;1.40;;;;;;;30.06;39.45;96454.72;5063680;28;20135;-68
2023/06/10 08:47:00;;;;;;;1.83;1.83;;;;;;;29.90;39.33;96452.56;5063823;28;20048;-68
2023/06/10 08:49:30;;;;;;;1.70;1.70;;;;;;;29.90;39.73;96455.44;5063536;28;20051;-68
2023/06/10 08:52:02;;;;;;;1.80;1.80;;;;;;;29.87;38.26;96447.09;5062232;28;20435;-67
2023/06/10 08:54:34;;;;;;;1.73;1.73;;;;;;;29.74;38.83;96441.84;5063571;28;20090;-68
2023/06/10 08:57:06;;;;;;;1.60;1.60;;;;;;;29.37;40.46;96441.09;5067677;28;20079;-68
2023/06/10 08:59:32;;;;;;;1.50;1.50;;;;;;;29.24;38.77;96443.59;5068637;28;20052;-68
2023/06/10 09:02:02;;;;;;;1.60;1.60;;;;;;;28.36;38.43;96320.28;5068656;28;20132;-67
2023/06/10 09:04:29;;;;;;;1.55;1.55;;;;;;;28.96;39.30;96442.59;5071353;28;20140;-67
2023/06/10 09:06:57;;;;;;;1.65;1.65;;;;;;;28.45;40.50;96414.13;5070216;28;20063;-68
2023/06/10 09:09:27;;;;;;;1.88;1.88;;;;;;;28.70;39.37;96410.50;5069171;28;20799;-67
2023/06/10 09:11:54;;;;;;;1.63;1.63;;;;;;;28.74;40.65;96451.72;5046894;28;20516;-66
2023/06/10 09:14:20;;;;;;;1.73;1.73;;;;;;;28.53;40.88;96449.47;5050598;28;20044;-67
2023/06/10 09:16:48;;;;;;;1.52;1.52;;;;;;;28.47;42.66;96442.91;5048874;28;20337;-67
2023/06/10 09:19:16;;;;;;;1.50;1.50;;;;;;;28.44;43.47;96435.38;5050580;28;20064;-67
2023/06/10 09:21:42;;;;;;;1.40;1.40;;;;;;;27.97;42.17;96414.66;5050344;28;20057;-68
2023/06/10 09:24:10;;;;;;;1.63;1.63;;;;;;;27.50;44.78;96368.78;5050442;28;20130;-68
2023/06/10 09:26:36;;;;;;;1.67;1.67;;;;;;;27.77;46.83;96433.81;5050181;28;20053;-68
2023/06/10 09:29:05;;;;;;;1.40;1.40;;;;;;;27.35;49.53;96425.75;5049917;28;20049;-67
2023/06/10 09:31:35;;;;;;;1.58;1.58;;;;;;;27.25;50.61;96427.13;5048574;28;20049;-68
2023/06/10 09:34:13;;;;;;;1.30;1.30;;;;;;;27.18;50.49;96427.53;5049698;28;20049;-69
2023/06/10 09:36:40;;;;;;;1.50;1.50;;;;;;;26.93;50.94;96402.63;5049570;28;20542;-69
2023/06/10 09:39:17;;;;;;;1.50;1.50;;;;;;;26.59;51.80;96394.78;5049608;28;20450;-68
2023/06/10 09:41:45;;;;;;;1.52;1.52;;;;;;;26.58;52.66;96418.81;5048483;28;20049;-69
2023/06/10 09:44:17;;;;;;;1.35;1.35;;;;;;;26.51;52.92;96419.19;5049924;28;20509;-68
2023/06/10 09:46:49;;;;;;;1.38;1.38;;;;;;;26.56;53.06;96421.34;5050104;28;20523;-70
2023/06/10 09:49:16;;;;;;;1.30;1.30;;;;;;;26.06;54.25;96354.38;5050585;28;20142;-68
2023/06/10 09:51:55;;;;;;;1.40;1.40;;;;;;;26.31;54.68;96416.25;5049880;28;20076;-68
2023/06/10 09:54:22;;;;;;;1.20;1.20;;;;;;;25.53;54.58;96316.72;5049631;28;20556;-68
2023/06/10 09:56:51;;;;;;;1.10;1.10;;;;;;;26.26;54.77;96419.78;5049766;28;20084;-68
2023/06/10 09:59:31;;;;;;;1.20;1.20;;;;;;;26.03;55.36;96424.28;5049915;28;20063;-67
2023/06/10 10:02:00;;;;;;;1.25;1.25;;;;;;;25.64;56.77;96419.06;5049435;28;20056;-67
2023/06/10 10:04:28;;;;;;;1.40;1.40;;;;;;;25.42;56.66;96425.03;5048568;28;20056;-68
2023/06/10 10:06:55;;;;;;;1.50;1.50;;;;;;;25.57;56.65;96425.91;5047828;28;20132;-70
2023/06/10 10:09:22;;;;;;;1.20;1.20;;;;;;;23.22;57.50;96072.41;5052786;28;20056;-69
2023/06/10 10:11:51;;;;;;;1.40;1.40;;;;;;;25.22;56.61;96394.44;5060671;28;20519;-65
2023/06/10 10:14:19;;;;;;;1.27;1.27;;;;;;;25.26;55.70;96346.03;5053459;28;20408;-66
2023/06/10 10:16:47;;;;;;;1.10;1.10;;;;;;;25.12;54.68;96315.59;5065730;28;20586;-65
2023/06/10 10:19:20;;;;;;;1.48;1.48;;;;;;;25.91;55.68;96413.94;5055194;28;20058;-67
2023/06/10 10:21:54;;;;;;;1.40;1.40;;;;;;;26.02;54.46;96413.41;5050475;28;20082;-64
2023/06/10 10:24:26;;;;;;;1.25;1.25;;;;;;;26.07;51.77;96412.72;5045532;28;20071;-63
2023/06/10 10:26:58;;;;;;;1.20;1.20;;;;;;;26.08;53.13;96398.03;5049672;28;20118;-67
2023/06/10 10:29:36;;;;;;;1.40;1.40;;;;;;;25.70;51.25;96334.84;5059126;28;20537;-69
2023/06/10 10:32:05;;;;;;;1.42;1.42;;;;;;;26.47;50.31;96412.94;5049611;28;20060;-64
2023/06/10 10:35:14;;;;;;;1.40;1.40;;;;;;;26.31;49.66;96382.97;5060262;28;20084;-65
2023/06/10 10:37:41;;;;;;;1.30;1.30;;;;;;;27.04;48.35;96408.47;5060879;28;20053;-65
2023/06/10 10:40:10;;;;;;;1.40;1.40;;;;;;;27.33;49.21;96408.38;5046403;28;20780;-69
2023/06/10 10:42:38;;;;;;;1.45;1.45;;;;;;;26.81;53.49;96380.19;5044374;28;20040;-69
2023/06/10 10:45:06;;;;;;;1.50;1.50;;;;;;;26.63;54.37;96403.91;5050766;28;20052;-64
2023/06/10 10:47:37;;;;;;;1.30;1.30;;;;;;;26.52;53.86;96395.19;5062761;28;20086;-66
2023/06/10 10:50:14;;;;;;;1.58;1.58;;;;;;;26.68;51.74;96395.50;5062097;28;20531;-66
2023/06/10 10:52:59;;;;;;;1.50;1.50;;;;;;;27.03;51.75;96398.34;5064967;28;20163;-65
2023/06/10 10:55:27;;;;;;;1.30;1.30;;;;;;;27.14;51.54;96395.66;5064739;28;20080;-66
2023/06/10 10:58:04;;;;;;;1.17;1.17;;;;;;;26.96;52.01;96393.09;5064059;28;20485;-66
2023/06/10 11:00:33;;;;;;;1.60;1.60;;;;;;;26.86;50.52;96308.44;5059117;28;20059;-66
2023/06/10 11:03:04;;;;;;;1.50;1.50;;;;;;;27.47;48.75;96347.81;5057096;28;20048;-66
2023/06/10 11:05:39;;;;;;;1.50;1.50;;;;;;;28.40;48.51;96386.34;5064115;28;20048;-66
2023/06/10 11:08:08;;;;;;;1.50;1.50;;;;;;;28.69;45.24;96378.34;5045435;28;20530;-67
2023/06/10 11:10:36;;;;;;;1.70;1.70;;;;;;;28.48;43.55;96350.44;5049604;28;20057;-67
2023/06/10 11:13:30;;;;;;;1.70;1.70;;;;;;;28.19;42.28;96243.19;5056964;28;20542;-66
2023/06/10 11:15:59;;;;;;;1.65;1.65;;;;;;;29.16;40.78;96365.47;5060179;28;20435;-64
2023/06/10 11:18:31;;;;;;;1.80;1.80;;;;;;;28.40;40.28;96246.72;5062006;28;20048;-64
2023/06/10 11:21:00;;;;;;;1.70;1.70;;;;;;;29.34;40.43;96365.03;5052870;28;20557;-65
2023/06/10 11:23:33;;;;;;;1.90;1.90;;;;;;;29.57;39.01;96361.03;5044005;28;20067;-66
2023/06/10 11:26:42;;;;;;;1.67;1.67;;;;;;;29.60;39.20;96354.28;5043658;28;20140;-64
2023/06/10 11:29:09;;;;;;;1.60;1.60;;;;;;;29.08;39.39;96305.28;5045166;28;20067;-65
2023/06/10 11:31:50;;;;;;;1.70;1.70;;;;;;;29.14;39.98;96350.94;5043386;28;20518;-65
2023/06/10 11:34:25;;;;;;;1.40;1.40;;;;;;;28.01;41.09;96358.25;5045633;28;20498;-65
2023/06/10 11:36:53;;;;;;;1.55;1.55;;;;;;;28.10;40.85;96298.31;5047038;28;20056;-65
2023/06/10 11:39:23;;;;;;;1.80;1.80;;;;;;;28.48;40.98;96311.34;5043707;28;20060;-64
2023/06/10 11:41:50;;;;;;;1.60;1.60;;;;;;;27.71;43.31;96345.47;5044922;28;20938;-64